createdAt,value
2022-12-31T00:00:51.136Z,7.73
2022-12-31T00:03:19.459Z,7.83
2022-12-31T00:05:49.248Z,5.97
2022-12-31T00:08:17.379Z,4.53
2022-12-31T00:10:45.624Z,5.33
2022-12-31T00:13:14.499Z,4.73
2022-12-31T00:15:43.823Z,5.07
2022-12-31T00:18:12.711Z,5.37
2022-12-31T00:20:42.286Z,5.90
2022-12-31T00:23:12.563Z,4.80
2022-12-31T00:25:40.619Z,4.50
2022-12-31T00:28:08.781Z,5.37
2022-12-31T00:30:36.987Z,7.03
2022-12-31T00:33:05.154Z,4.17
2022-12-31T00:35:34.749Z,4.60
2022-12-31T00:38:02.861Z,4.40
2022-12-31T00:40:32.401Z,5.53
2022-12-31T00:43:00.494Z,5.07
2022-12-31T00:45:28.700Z,6.13
2022-12-31T00:47:56.899Z,4.33
2022-12-31T00:50:24.990Z,3.63
2022-12-31T00:52:53.049Z,3.50
2022-12-31T00:55:22.235Z,4.10
2022-12-31T00:57:51.761Z,4.43
2022-12-31T01:00:20.045Z,7.97
2022-12-31T01:02:48.352Z,6.00
2022-12-31T01:05:16.717Z,3.70
2022-12-31T01:07:44.866Z,7.40
2022-12-31T01:10:13.009Z,3.70
2022-12-31T01:12:41.109Z,3.97
2022-12-31T01:15:11.929Z,3.93
2022-12-31T01:17:40.016Z,6.10
2022-12-31T01:20:09.156Z,4.63
2022-12-31T01:22:37.576Z,3.80
2022-12-31T01:25:06.586Z,6.23
2022-12-31T01:27:35.123Z,4.00
2022-12-31T01:30:03.362Z,4.40
2022-12-31T01:32:33.035Z,4.20
2022-12-31T01:35:01.216Z,5.23
2022-12-31T01:37:29.715Z,4.30
2022-12-31T01:39:57.955Z,5.20
2022-12-31T01:42:26.052Z,6.17
2022-12-31T01:44:56.013Z,4.07
2022-12-31T01:47:37.238Z,3.87
2022-12-31T01:50:11.588Z,4.80
2022-12-31T01:52:42.957Z,3.93
2022-12-31T01:55:22.800Z,4.53
2022-12-31T01:57:56.257Z,3.73
2022-12-31T02:00:24.476Z,4.50
2022-12-31T02:02:54.389Z,5.07
2022-12-31T02:05:27.772Z,5.07
2022-12-31T02:07:56.140Z,5.70
2022-12-31T02:10:24.420Z,6.37
2022-12-31T02:12:53.433Z,4.97
2022-12-31T02:15:30.005Z,6.13
2022-12-31T02:18:10.359Z,5.90
2022-12-31T02:21:02.645Z,5.77
2022-12-31T02:23:55.573Z,6.30
2022-12-31T02:26:51.244Z,4.77
2022-12-31T02:29:58.425Z,5.00
2022-12-31T02:32:37.925Z,4.27
2022-12-31T02:35:12.178Z,5.77
2022-12-31T02:37:43.367Z,5.33
2022-12-31T02:40:15.696Z,4.03
2022-12-31T02:42:43.871Z,4.90
2022-12-31T02:45:15.211Z,4.00
2022-12-31T02:47:59.009Z,4.33
2022-12-31T02:50:37.952Z,4.03
2022-12-31T02:53:23.004Z,4.00
2022-12-31T02:55:56.782Z,3.87
2022-12-31T02:58:48.466Z,3.73
2022-12-31T03:01:38.828Z,3.77
2022-12-31T03:04:22.323Z,3.60
2022-12-31T03:06:51.459Z,6.20
2022-12-31T03:09:19.670Z,3.80
2022-12-31T03:12:05.429Z,4.23
2022-12-31T03:14:33.551Z,3.90
2022-12-31T03:17:01.831Z,7.30
2022-12-31T03:19:48.897Z,5.70
2022-12-31T03:22:29.057Z,4.00
2022-12-31T03:25:17.272Z,4.23
2022-12-31T03:27:45.697Z,5.50
2022-12-31T03:30:15.419Z,7.60
2022-12-31T03:32:44.746Z,19.53
2022-12-31T03:35:15.656Z,17.40
2022-12-31T03:37:44.527Z,18.43
2022-12-31T03:40:15.472Z,11.63
2022-12-31T03:42:43.733Z,13.37
2022-12-31T03:45:13.268Z,9.47
2022-12-31T03:47:41.437Z,15.33
2022-12-31T03:50:11.596Z,14.00
2022-12-31T03:52:41.365Z,14.00
2022-12-31T03:55:10.846Z,17.27
2022-12-31T03:57:39.751Z,10.97
2022-12-31T04:00:10.477Z,11.20
2022-12-31T04:02:38.717Z,9.77
2022-12-31T04:05:08.467Z,9.20
2022-12-31T04:07:36.928Z,9.07
2022-12-31T04:10:08.397Z,8.40
2022-12-31T04:12:36.569Z,8.40
2022-12-31T04:15:05.402Z,8.03
2022-12-31T04:17:33.872Z,13.10
2022-12-31T04:20:01.991Z,8.17
2022-12-31T04:22:30.092Z,8.77
2022-12-31T04:24:58.205Z,10.10
2022-12-31T04:27:27.852Z,6.87
2022-12-31T04:29:56.017Z,6.70
2022-12-31T04:32:24.190Z,5.30
2022-12-31T04:34:52.337Z,7.53
2022-12-31T04:37:20.479Z,4.73
2022-12-31T04:39:48.556Z,5.70
2022-12-31T04:42:16.642Z,8.27
2022-12-31T04:44:46.241Z,9.70
2022-12-31T04:47:18.692Z,9.77
2022-12-31T04:49:49.930Z,16.00
2022-12-31T04:52:18.126Z,14.67
2022-12-31T04:54:46.264Z,13.50
2022-12-31T04:57:14.391Z,9.37
2022-12-31T04:59:42.521Z,14.97
2022-12-31T05:02:12.109Z,18.43
2022-12-31T05:04:41.519Z,98.40
2022-12-31T05:07:09.660Z,57.10
2022-12-31T05:09:37.768Z,20.83
2022-12-31T05:12:06.398Z,11.40
2022-12-31T05:14:34.639Z,14.60
2022-12-31T05:17:02.797Z,11.63
2022-12-31T05:19:32.380Z,17.53
2022-12-31T05:22:18.004Z,17.90
2022-12-31T05:24:46.187Z,19.77
2022-12-31T05:27:14.316Z,12.00
2022-12-31T05:29:42.432Z,17.33
2022-12-31T05:32:10.512Z,14.87
2022-12-31T05:34:40.384Z,12.53
2022-12-31T05:37:08.443Z,15.13
2022-12-31T05:39:36.655Z,11.70
2022-12-31T05:42:04.988Z,12.97
2022-12-31T05:44:33.255Z,13.67
2022-12-31T05:47:01.328Z,13.37
2022-12-31T05:49:29.465Z,14.13
2022-12-31T05:51:59.193Z,17.07
2022-12-31T05:54:27.375Z,12.87
2022-12-31T05:56:55.555Z,14.53
2022-12-31T05:59:23.696Z,16.37
2022-12-31T06:01:52.175Z,20.33
2022-12-31T06:04:20.396Z,14.80
2022-12-31T06:06:48.539Z,13.63
2022-12-31T06:09:19.054Z,10.93
2022-12-31T06:11:47.171Z,9.80
2022-12-31T06:14:15.943Z,18.83
2022-12-31T06:16:44.368Z,13.27
2022-12-31T06:19:12.534Z,15.17
2022-12-31T06:21:40.634Z,14.50
2022-12-31T06:24:09.301Z,13.37
2022-12-31T06:26:38.876Z,28.07
2022-12-31T06:29:07.085Z,15.87
2022-12-31T06:31:35.221Z,12.53
2022-12-31T06:34:03.495Z,11.80
2022-12-31T06:36:31.707Z,13.87
2022-12-31T06:38:59.847Z,13.23
2022-12-31T06:41:27.907Z,12.23
2022-12-31T06:43:57.369Z,11.60
2022-12-31T06:46:25.643Z,11.47
2022-12-31T06:48:53.900Z,20.33
2022-12-31T06:51:23.283Z,20.27
2022-12-31T06:53:52.795Z,12.67
2022-12-31T06:56:26.511Z,11.97
2022-12-31T06:58:59.805Z,12.47
2022-12-31T07:01:45.182Z,21.17
2022-12-31T07:04:46.112Z,13.00
2022-12-31T07:07:19.510Z,10.47
2022-12-31T07:09:57.183Z,16.80
2022-12-31T07:12:40.461Z,14.63
2022-12-31T07:15:15.793Z,11.80
2022-12-31T07:17:54.135Z,10.50
2022-12-31T07:20:23.116Z,11.60
2022-12-31T07:22:51.799Z,14.70
2022-12-31T07:25:22.072Z,13.63
2022-12-31T07:28:04.857Z,12.20
2022-12-31T07:30:41.942Z,17.90
2022-12-31T07:33:26.893Z,11.83
2022-12-31T07:36:05.634Z,16.87
2022-12-31T07:38:42.287Z,13.27
2022-12-31T07:41:19.055Z,7.27
2022-12-31T07:43:57.571Z,13.80
2022-12-31T07:46:36.923Z,6.47
2022-12-31T07:49:05.619Z,6.27
2022-12-31T07:51:34.346Z,5.97
2022-12-31T07:54:02.521Z,5.80
2022-12-31T07:56:31.725Z,5.07
2022-12-31T07:59:09.337Z,11.13
2022-12-31T08:01:48.609Z,4.47
2022-12-31T08:04:26.328Z,8.47
2022-12-31T08:07:03.876Z,8.00
2022-12-31T08:09:46.631Z,8.30
2022-12-31T08:12:15.732Z,6.70
2022-12-31T08:14:48.352Z,5.17
2022-12-31T08:17:20.425Z,11.03
2022-12-31T08:19:49.217Z,11.80
2022-12-31T08:22:36.082Z,7.90
2022-12-31T08:25:17.884Z,7.20
2022-12-31T08:27:57.047Z,12.13
2022-12-31T08:30:37.895Z,9.30
2022-12-31T08:33:15.742Z,16.40
2022-12-31T08:36:01.241Z,18.10
2022-12-31T08:38:35.624Z,10.00
2022-12-31T08:41:14.786Z,14.23
2022-12-31T08:43:50.938Z,16.50
2022-12-31T08:46:26.113Z,9.37
2022-12-31T08:48:56.119Z,10.50
2022-12-31T08:51:26.706Z,13.57
2022-12-31T08:53:56.292Z,10.97
2022-12-31T08:56:29.850Z,12.20
2022-12-31T08:59:13.788Z,8.43
2022-12-31T09:01:58.540Z,9.73
2022-12-31T09:04:40.970Z,9.00
2022-12-31T09:07:09.814Z,7.23
2022-12-31T09:09:48.753Z,8.33
2022-12-31T09:12:26.742Z,8.60
2022-12-31T09:15:02.040Z,7.40
2022-12-31T09:17:46.917Z,7.27
2022-12-31T09:20:22.297Z,9.17
2022-12-31T09:22:50.978Z,6.70
2022-12-31T09:25:21.946Z,7.97
2022-12-31T09:28:06.849Z,8.57
2022-12-31T09:30:43.490Z,8.87
2022-12-31T09:33:17.870Z,9.47
2022-12-31T09:35:54.521Z,9.37
2022-12-31T09:38:29.293Z,8.43
2022-12-31T09:41:29.455Z,9.13
2022-12-31T09:44:36.181Z,11.70
2022-12-31T09:47:43.286Z,8.80
2022-12-31T09:50:42.391Z,10.60
2022-12-31T09:53:48.110Z,9.47
2022-12-31T09:56:24.225Z,11.87
2022-12-31T09:59:01.965Z,9.47
2022-12-31T10:01:44.811Z,9.03
2022-12-31T10:04:39.843Z,8.87
2022-12-31T10:07:24.814Z,7.87
2022-12-31T10:10:14.597Z,11.87
2022-12-31T10:12:56.314Z,9.03
2022-12-31T10:16:06.773Z,6.83
2022-12-31T10:18:50.562Z,10.40
2022-12-31T10:21:33.160Z,14.20
2022-12-31T10:24:24.830Z,7.63
2022-12-31T10:27:18.342Z,8.43
2022-12-31T10:29:48.969Z,8.33
2022-12-31T10:32:26.317Z,6.50
2022-12-31T10:35:11.257Z,7.67
2022-12-31T10:37:49.545Z,8.10
2022-12-31T10:40:31.185Z,8.83
2022-12-31T10:43:48.047Z,9.63
2022-12-31T10:46:52.821Z,7.03
2022-12-31T10:49:58.802Z,6.73
2022-12-31T10:53:18.208Z,6.40
2022-12-31T10:56:09.824Z,8.30
2022-12-31T10:59:03.276Z,8.77
2022-12-31T11:01:43.581Z,13.07
2022-12-31T11:04:59.861Z,9.47
2022-12-31T11:07:40.709Z,10.57
2022-12-31T11:10:50.506Z,9.80
2022-12-31T11:14:03.365Z,11.60
2022-12-31T11:17:02.419Z,12.50
2022-12-31T11:19:38.499Z,13.40
2022-12-31T11:22:23.416Z,12.10
2022-12-31T11:25:21.619Z,16.50
2022-12-31T11:28:07.974Z,17.60
2022-12-31T11:30:47.730Z,13.73
2022-12-31T11:33:33.434Z,18.37
2022-12-31T11:36:15.237Z,14.40
2022-12-31T11:38:52.506Z,19.13
2022-12-31T11:41:30.094Z,18.67
2022-12-31T11:44:19.378Z,13.27
2022-12-31T11:47:08.899Z,15.80
2022-12-31T11:50:04.659Z,14.83
2022-12-31T11:52:56.118Z,13.80
2022-12-31T11:55:34.151Z,12.70
2022-12-31T11:58:14.743Z,11.70
2022-12-31T12:00:50.796Z,14.13
2022-12-31T12:03:18.928Z,13.73
2022-12-31T12:05:47.056Z,10.80
2022-12-31T12:08:15.960Z,13.77
2022-12-31T12:10:47.623Z,12.90
2022-12-31T12:13:23.834Z,15.33
2022-12-31T12:15:54.249Z,15.63
2022-12-31T12:18:31.670Z,19.10
2022-12-31T12:21:09.573Z,14.50
2022-12-31T12:23:37.904Z,18.40
2022-12-31T12:26:06.952Z,15.80
2022-12-31T12:28:46.837Z,19.03
2022-12-31T12:31:21.988Z,22.33
2022-12-31T12:33:52.208Z,13.23
2022-12-31T12:36:21.797Z,14.20
2022-12-31T12:39:01.096Z,14.90
2022-12-31T12:41:29.224Z,19.70
2022-12-31T12:44:07.331Z,16.27
2022-12-31T12:46:44.658Z,12.93
2022-12-31T12:49:23.884Z,11.77
2022-12-31T12:52:10.367Z,11.20
2022-12-31T12:54:56.002Z,8.90
2022-12-31T12:57:30.764Z,10.53
2022-12-31T13:00:19.059Z,12.13
2022-12-31T13:03:11.361Z,9.70
2022-12-31T13:05:59.559Z,13.00
2022-12-31T13:08:38.969Z,14.87
2022-12-31T13:11:21.891Z,14.20
2022-12-31T13:14:07.836Z,13.30
2022-12-31T13:16:44.255Z,12.70
2022-12-31T13:19:18.318Z,15.40
2022-12-31T13:21:57.045Z,16.47
2022-12-31T13:24:40.942Z,13.10
2022-12-31T13:27:15.477Z,13.87
2022-12-31T13:29:46.352Z,12.10
2022-12-31T13:32:20.610Z,13.00
2022-12-31T13:34:53.110Z,11.63
2022-12-31T13:37:28.787Z,14.23
2022-12-31T13:40:03.031Z,11.63
2022-12-31T13:42:40.595Z,11.30
2022-12-31T13:45:15.115Z,15.77
2022-12-31T13:47:49.695Z,14.73
2022-12-31T13:50:23.649Z,21.63
2022-12-31T13:52:58.377Z,13.90
2022-12-31T13:55:31.411Z,12.83
2022-12-31T13:58:06.436Z,19.97
2022-12-31T14:00:39.890Z,13.60
2022-12-31T14:03:15.304Z,15.53
2022-12-31T14:05:54.557Z,16.10
2022-12-31T14:08:22.815Z,14.10
2022-12-31T14:11:02.669Z,21.90
2022-12-31T14:13:42.736Z,13.90
2022-12-31T14:16:20.739Z,13.33
2022-12-31T14:19:00.928Z,15.87
2022-12-31T14:21:33.236Z,14.77
2022-12-31T14:24:11.351Z,14.97
2022-12-31T14:26:44.280Z,16.43
2022-12-31T14:29:33.254Z,14.50
2022-12-31T14:32:31.393Z,16.30
2022-12-31T14:35:18.163Z,14.20
2022-12-31T14:37:52.719Z,23.30
2022-12-31T14:40:28.094Z,16.90
2022-12-31T14:43:08.602Z,19.63
2022-12-31T14:45:48.390Z,20.53
2022-12-31T14:48:27.121Z,20.50
2022-12-31T14:50:57.245Z,16.40
2022-12-31T14:53:27.161Z,23.80
2022-12-31T14:56:01.091Z,16.50
2022-12-31T14:58:34.880Z,16.13
2022-12-31T15:01:08.866Z,21.00
2022-12-31T15:03:45.382Z,18.83
2022-12-31T15:06:39.838Z,22.00
2022-12-31T15:09:19.145Z,22.03
2022-12-31T15:12:05.441Z,24.73
2022-12-31T15:15:01.012Z,28.70
2022-12-31T15:17:41.656Z,36.63
2022-12-31T15:20:48.110Z,34.80
2022-12-31T15:23:22.966Z,32.90
2022-12-31T15:25:55.685Z,29.20
2022-12-31T15:28:33.395Z,44.80
2022-12-31T15:31:14.412Z,45.00
2022-12-31T15:33:56.741Z,40.97
2022-12-31T15:36:26.965Z,42.87
2022-12-31T15:42:35.616Z,49.00
2022-12-31T15:44:49.827Z,40.80
2022-12-31T15:47:25.271Z,47.50
2022-12-31T15:49:55.861Z,48.57
2022-12-31T15:52:31.031Z,47.57
2022-12-31T15:54:59.763Z,50.43
2022-12-31T15:57:35.149Z,50.33
2022-12-31T16:00:07.983Z,50.17
2022-12-31T16:02:39.187Z,40.67
2022-12-31T16:05:08.110Z,46.80
2022-12-31T16:07:36.502Z,57.87
2022-12-31T16:10:06.816Z,48.17
2022-12-31T16:12:44.432Z,45.40
2022-12-31T16:15:23.102Z,52.77
2022-12-31T16:18:01.565Z,42.80
2022-12-31T16:20:32.907Z,51.50
2022-12-31T16:23:03.132Z,64.17
2022-12-31T16:25:34.031Z,61.73
2022-12-31T16:28:04.958Z,60.87
2022-12-31T16:30:35.934Z,56.53
2022-12-31T16:33:06.718Z,64.53
2022-12-31T16:35:37.557Z,70.30
2022-12-31T16:38:14.070Z,65.47
2022-12-31T16:40:43.938Z,47.20
2022-12-31T16:43:29.004Z,50.53
2022-12-31T16:45:59.331Z,50.23
2022-12-31T16:48:27.952Z,53.33
2022-12-31T16:50:57.499Z,52.80
2022-12-31T16:53:29.921Z,46.57
2022-12-31T16:56:02.857Z,58.13
2022-12-31T16:58:34.711Z,47.27
2022-12-31T17:01:15.445Z,62.87
2022-12-31T17:03:46.943Z,55.00
2022-12-31T17:06:17.731Z,42.03
2022-12-31T17:08:49.646Z,42.07
2022-12-31T17:11:29.945Z,58.90
2022-12-31T17:14:07.820Z,60.93
2022-12-31T17:16:38.034Z,48.10
2022-12-31T17:19:06.422Z,41.73
2022-12-31T17:21:34.832Z,42.77
2022-12-31T17:24:07.101Z,31.83
2022-12-31T17:26:38.635Z,29.53
2022-12-31T17:29:08.183Z,40.13
2022-12-31T17:31:38.283Z,36.80
2022-12-31T17:34:24.823Z,43.27
2022-12-31T17:37:00.137Z,42.90
2022-12-31T17:39:40.059Z,49.57
2022-12-31T17:42:10.993Z,43.10
2022-12-31T17:44:43.666Z,51.27
2022-12-31T17:47:15.083Z,39.77
2022-12-31T17:49:47.105Z,36.30
2022-12-31T17:52:16.710Z,37.00
2022-12-31T17:54:44.866Z,33.73
2022-12-31T17:57:27.608Z,82.00
2022-12-31T17:59:57.800Z,69.47
2022-12-31T18:02:26.122Z,54.53
2022-12-31T18:04:54.326Z,50.27
2022-12-31T18:07:22.593Z,53.30
2022-12-31T18:09:50.722Z,57.03
2022-12-31T18:12:20.345Z,57.67
2022-12-31T18:14:48.496Z,57.47
2022-12-31T18:17:18.099Z,40.30
2022-12-31T18:20:04.151Z,63.20
2022-12-31T18:22:33.408Z,55.67
2022-12-31T18:25:01.852Z,49.60
2022-12-31T18:27:30.784Z,47.83
2022-12-31T18:30:04.546Z,60.73
2022-12-31T18:32:35.504Z,85.30
2022-12-31T18:35:03.653Z,102.77
2022-12-31T18:37:34.130Z,73.03
2022-12-31T18:40:02.286Z,91.83
2022-12-31T18:42:30.721Z,139.20
2022-12-31T18:44:58.843Z,141.40
2022-12-31T18:47:27.006Z,129.00
2022-12-31T18:49:56.534Z,112.10
2022-12-31T18:52:25.178Z,85.17
2022-12-31T18:54:53.356Z,64.83
2022-12-31T18:57:21.553Z,61.20
2022-12-31T18:59:49.739Z,45.43
2022-12-31T19:02:20.592Z,44.30
2022-12-31T19:04:48.879Z,44.83
2022-12-31T19:07:18.411Z,49.90
2022-12-31T19:09:48.311Z,46.33
2022-12-31T19:12:18.304Z,42.13
2022-12-31T19:14:46.378Z,43.70
2022-12-31T19:17:14.536Z,39.23
2022-12-31T19:19:42.666Z,36.90
2022-12-31T19:22:16.298Z,35.23
2022-12-31T19:24:46.142Z,36.03
2022-12-31T19:27:14.919Z,33.10
2022-12-31T19:29:43.092Z,32.43
2022-12-31T19:32:11.418Z,34.50
2022-12-31T19:34:39.593Z,43.70
2022-12-31T19:37:07.757Z,35.80
2022-12-31T19:39:35.832Z,34.70
2022-12-31T19:42:05.821Z,38.73
2022-12-31T19:44:34.030Z,43.13
2022-12-31T19:47:02.156Z,39.13
2022-12-31T19:49:30.331Z,39.47
2022-12-31T19:51:58.497Z,37.57
2022-12-31T19:54:26.645Z,40.63
2022-12-31T19:56:54.800Z,38.13
2022-12-31T19:59:24.314Z,49.63
2022-12-31T20:01:53.417Z,52.50
2022-12-31T20:04:21.839Z,47.63
2022-12-31T20:06:50.034Z,38.70
2022-12-31T20:09:18.278Z,39.57
2022-12-31T20:11:46.648Z,52.87
2022-12-31T20:14:14.797Z,50.07
2022-12-31T20:16:44.463Z,40.70
2022-12-31T20:19:12.739Z,39.30
2022-12-31T20:21:42.009Z,38.50
2022-12-31T20:24:10.182Z,36.00
2022-12-31T20:26:38.852Z,35.90
2022-12-31T20:29:06.969Z,44.13
2022-12-31T20:31:35.075Z,37.50
2022-12-31T20:34:06.052Z,48.57
2022-12-31T20:36:34.175Z,40.13
2022-12-31T20:39:02.333Z,44.47
2022-12-31T20:41:32.226Z,37.17
2022-12-31T20:44:00.459Z,35.87
2022-12-31T20:46:31.157Z,43.97
2022-12-31T20:49:01.245Z,37.87
2022-12-31T20:51:32.708Z,46.83
2022-12-31T20:54:02.726Z,42.67
2022-12-31T20:56:33.218Z,34.07
2022-12-31T20:59:02.161Z,36.43
2022-12-31T21:01:55.180Z,38.70
2022-12-31T21:04:19.106Z,39.17
2022-12-31T21:06:49.263Z,34.30
2022-12-31T21:09:17.374Z,36.60
2022-12-31T21:12:02.841Z,30.70
2022-12-31T21:14:30.940Z,34.73
2022-12-31T21:16:59.062Z,33.80
2022-12-31T21:19:27.160Z,33.03
2022-12-31T21:21:56.670Z,45.20
2022-12-31T21:24:24.787Z,41.90
2022-12-31T21:26:55.782Z,45.20
2022-12-31T21:29:24.456Z,36.67
2022-12-31T21:31:52.582Z,35.33
2022-12-31T21:34:20.709Z,39.63
2022-12-31T21:36:48.860Z,39.87
2022-12-31T21:39:18.403Z,41.77
2022-12-31T21:41:52.325Z,44.20
2022-12-31T21:44:21.486Z,41.93
2022-12-31T21:47:25.106Z,34.73
2022-12-31T21:49:38.142Z,38.10
2022-12-31T21:52:23.938Z,28.50
2022-12-31T21:55:10.980Z,26.40
2022-12-31T21:58:07.191Z,23.70
2022-12-31T22:00:53.306Z,27.47
2022-12-31T22:03:28.531Z,29.53
2022-12-31T22:06:00.049Z,36.90
2022-12-31T22:08:29.562Z,35.77
2022-12-31T22:10:59.340Z,38.13
2022-12-31T22:13:27.645Z,45.30
2022-12-31T22:16:04.234Z,44.83
2022-12-31T22:18:35.135Z,56.23
2022-12-31T22:21:05.321Z,68.47
2022-12-31T22:23:34.447Z,51.07
2022-12-31T22:26:05.238Z,64.93
2022-12-31T22:28:38.826Z,52.77
2022-12-31T22:31:08.294Z,48.80
2022-12-31T22:33:36.648Z,42.00
2022-12-31T22:36:07.095Z,47.20
2022-12-31T22:38:35.957Z,44.10
2022-12-31T22:41:08.114Z,53.47
2022-12-31T22:43:38.931Z,41.93
2022-12-31T22:46:08.786Z,41.63
2022-12-31T22:48:37.220Z,40.50
2022-12-31T22:51:05.682Z,39.80
2022-12-31T22:53:34.287Z,41.03
2022-12-31T22:56:02.455Z,39.23
2022-12-31T22:58:31.959Z,32.03
2022-12-31T23:01:00.156Z,24.80
2022-12-31T23:03:28.487Z,30.33
2022-12-31T23:05:56.611Z,26.50
2022-12-31T23:08:24.728Z,21.90
2022-12-31T23:10:59.943Z,18.47
2022-12-31T23:13:50.529Z,18.93
2022-12-31T23:16:38.696Z,16.93
2022-12-31T23:19:24.686Z,14.10
2022-12-31T23:22:11.234Z,15.27
2022-12-31T23:24:43.081Z,16.77
2022-12-31T23:27:12.110Z,16.70
2022-12-31T23:29:46.756Z,10.67
2022-12-31T23:32:17.994Z,12.30
2022-12-31T23:34:47.649Z,10.23
2022-12-31T23:37:15.937Z,13.00
2022-12-31T23:39:44.269Z,11.47
2022-12-31T23:42:12.782Z,11.47
2022-12-31T23:44:40.926Z,12.43
2022-12-31T23:47:09.246Z,13.73
2022-12-31T23:49:38.851Z,12.37
2022-12-31T23:52:07.116Z,11.63
2022-12-31T23:54:36.114Z,12.00
2022-12-31T23:57:04.244Z,11.90
2022-12-31T23:59:32.464Z,12.23
